sensor_id;sensor_type;location;lat;lon;timestamp;temperature;humidity
4960;DHT22;2495;48.200;11.532;2022-08-06T00:03:37;22.60;78.80
4960;DHT22;2495;48.200;11.532;2022-08-06T00:08:38;22.60;79.50
4960;DHT22;2495;48.200;11.532;2022-08-06T00:13:39;22.60;78.70
4960;DHT22;2495;48.200;11.532;2022-08-06T00:18:41;22.50;79.10
4960;DHT22;2495;48.200;11.532;2022-08-06T00:23:42;22.50;79.20
4960;DHT22;2495;48.200;11.532;2022-08-06T00:28:43;22.50;80.60
4960;DHT22;2495;48.200;11.532;2022-08-06T00:33:44;22.70;79.90
4960;DHT22;2495;48.200;11.532;2022-08-06T00:38:46;22.60;79.40
4960;DHT22;2495;48.200;11.532;2022-08-06T00:43:47;22.50;79.40
4960;DHT22;2495;48.200;11.532;2022-08-06T00:48:48;22.40;79.50
4960;DHT22;2495;48.200;11.532;2022-08-06T00:53:50;22.40;79.80
4960;DHT22;2495;48.200;11.532;2022-08-06T00:58:51;22.40;80.70
4960;DHT22;2495;48.200;11.532;2022-08-06T01:03:52;22.40;80.00
4960;DHT22;2495;48.200;11.532;2022-08-06T01:08:54;22.30;79.90
4960;DHT22;2495;48.200;11.532;2022-08-06T01:13:55;22.20;79.60
4960;DHT22;2495;48.200;11.532;2022-08-06T01:18:59;22.10;79.80
4960;DHT22;2495;48.200;11.532;2022-08-06T01:29:33;22.00;80.70
4960;DHT22;2495;48.200;11.532;2022-08-06T01:34:34;21.90;81.00
4960;DHT22;2495;48.200;11.532;2022-08-06T01:39:33;21.90;80.30
4960;DHT22;2495;48.200;11.532;2022-08-06T01:44:36;21.90;80.40
4960;DHT22;2495;48.200;11.532;2022-08-06T01:49:36;21.90;80.60
4960;DHT22;2495;48.200;11.532;2022-08-06T01:54:39;21.80;81.30
4960;DHT22;2495;48.200;11.532;2022-08-06T01:59:40;21.80;80.70
4960;DHT22;2495;48.200;11.532;2022-08-06T02:04:40;21.80;81.20
4960;DHT22;2495;48.200;11.532;2022-08-06T02:09:42;21.80;81.40
4960;DHT22;2495;48.200;11.532;2022-08-06T02:14:50;21.80;81.10
4960;DHT22;2495;48.200;11.532;2022-08-06T02:19:50;21.80;81.60
4960;DHT22;2495;48.200;11.532;2022-08-06T02:24:51;21.70;81.40
4960;DHT22;2495;48.200;11.532;2022-08-06T02:29:52;21.80;81.60
4960;DHT22;2495;48.200;11.532;2022-08-06T02:34:54;21.80;81.70
4960;DHT22;2495;48.200;11.532;2022-08-06T02:40:40;21.80;81.90
4960;DHT22;2495;48.200;11.532;2022-08-06T02:46:07;21.80;82.10
4960;DHT22;2495;48.200;11.532;2022-08-06T02:50:19;21.80;82.20
4960;DHT22;2495;48.200;11.532;2022-08-06T02:55:21;21.80;82.30
4960;DHT22;2495;48.200;11.532;2022-08-06T03:00:21;21.70;82.20
4960;DHT22;2495;48.200;11.532;2022-08-06T03:05:22;21.80;82.40
4960;DHT22;2495;48.200;11.532;2022-08-06T03:10:24;21.70;82.50
4960;DHT22;2495;48.200;11.532;2022-08-06T03:15:25;21.80;83.40
4960;DHT22;2495;48.200;11.532;2022-08-06T03:20:26;21.70;82.70
4960;DHT22;2495;48.200;11.532;2022-08-06T03:25:27;21.70;82.80
4960;DHT22;2495;48.200;11.532;2022-08-06T03:30:28;21.80;83.00
4960;DHT22;2495;48.200;11.532;2022-08-06T03:35:30;21.80;83.20
4960;DHT22;2495;48.200;11.532;2022-08-06T03:40:31;21.80;83.10
4960;DHT22;2495;48.200;11.532;2022-08-06T03:45:35;21.70;83.10
4960;DHT22;2495;48.200;11.532;2022-08-06T03:50:38;21.80;83.50
4960;DHT22;2495;48.200;11.532;2022-08-06T03:55:38;21.70;83.60
4960;DHT22;2495;48.200;11.532;2022-08-06T04:00:46;21.70;83.60
4960;DHT22;2495;48.200;11.532;2022-08-06T04:05:46;21.70;83.80
4960;DHT22;2495;48.200;11.532;2022-08-06T04:10:48;21.70;83.80
4960;DHT22;2495;48.200;11.532;2022-08-06T04:15:52;21.70;84.10
4960;DHT22;2495;48.200;11.532;2022-08-06T04:20:54;21.70;83.90
4960;DHT22;2495;48.200;11.532;2022-08-06T04:25:54;21.60;84.10
4960;DHT22;2495;48.200;11.532;2022-08-06T04:30:56;21.60;84.30
4960;DHT22;2495;48.200;11.532;2022-08-06T04:35:58;21.50;84.00
4960;DHT22;2495;48.200;11.532;2022-08-06T04:40:58;21.40;84.20
4960;DHT22;2495;48.200;11.532;2022-08-06T04:45:59;21.20;83.80
4960;DHT22;2495;48.200;11.532;2022-08-06T04:51:04;21.10;84.10
4960;DHT22;2495;48.200;11.532;2022-08-06T04:56:08;21.00;84.60
4960;DHT22;2495;48.200;11.532;2022-08-06T05:01:08;21.00;84.80
4960;DHT22;2495;48.200;11.532;2022-08-06T05:06:13;21.00;84.60
4960;DHT22;2495;48.200;11.532;2022-08-06T05:11:20;20.80;84.60
4960;DHT22;2495;48.200;11.532;2022-08-06T05:16:18;20.70;84.80
4960;DHT22;2495;48.200;11.532;2022-08-06T05:21:21;20.70;84.70
4960;DHT22;2495;48.200;11.532;2022-08-06T05:26:21;20.60;84.70
4960;DHT22;2495;48.200;11.532;2022-08-06T05:31:35;20.50;84.80
4960;DHT22;2495;48.200;11.532;2022-08-06T05:36:38;20.50;85.20
4960;DHT22;2495;48.200;11.532;2022-08-06T05:41:39;20.40;84.80
4960;DHT22;2495;48.200;11.532;2022-08-06T05:46:45;20.40;85.00
4960;DHT22;2495;48.200;11.532;2022-08-06T05:51:52;20.40;84.70
4960;DHT22;2495;48.200;11.532;2022-08-06T05:57:01;20.30;85.10
4960;DHT22;2495;48.200;11.532;2022-08-06T06:02:00;20.30;84.70
4960;DHT22;2495;48.200;11.532;2022-08-06T06:07:01;20.20;84.30
4960;DHT22;2495;48.200;11.532;2022-08-06T06:12:02;20.10;84.50
4960;DHT22;2495;48.200;11.532;2022-08-06T06:22:21;19.90;84.20
4960;DHT22;2495;48.200;11.532;2022-08-06T06:48:56;19.50;84.60
4960;DHT22;2495;48.200;11.532;2022-08-06T06:53:56;19.50;84.40
4960;DHT22;2495;48.200;11.532;2022-08-06T07:04:09;19.50;84.40
4960;DHT22;2495;48.200;11.532;2022-08-06T07:09:09;19.50;84.50
4960;DHT22;2495;48.200;11.532;2022-08-06T07:14:10;19.50;84.60
4960;DHT22;2495;48.200;11.532;2022-08-06T07:19:11;19.60;84.60
4960;DHT22;2495;48.200;11.532;2022-08-06T07:24:13;19.50;84.10
4960;DHT22;2495;48.200;11.532;2022-08-06T07:29:14;19.60;86.10
4960;DHT22;2495;48.200;11.532;2022-08-06T07:34:15;19.80;84.80
4960;DHT22;2495;48.200;11.532;2022-08-06T07:39:37;19.80;84.00
4960;DHT22;2495;48.200;11.532;2022-08-06T07:44:37;19.80;84.40
4960;DHT22;2495;48.200;11.532;2022-08-06T07:49:39;19.80;86.30
4960;DHT22;2495;48.200;11.532;2022-08-06T07:54:39;19.90;84.30
4960;DHT22;2495;48.200;11.532;2022-08-06T07:59:40;19.90;84.00
4960;DHT22;2495;48.200;11.532;2022-08-06T08:04:41;19.70;84.90
4960;DHT22;2495;48.200;11.532;2022-08-06T08:10:01;19.80;84.40
4960;DHT22;2495;48.200;11.532;2022-08-06T08:15:03;19.70;83.70
4960;DHT22;2495;48.200;11.532;2022-08-06T08:20:07;19.70;84.00
4960;DHT22;2495;48.200;11.532;2022-08-06T08:25:08;19.60;84.40
4960;DHT22;2495;48.200;11.532;2022-08-06T08:30:10;19.70;84.30
4960;DHT22;2495;48.200;11.532;2022-08-06T08:35:11;19.70;84.40
4960;DHT22;2495;48.200;11.532;2022-08-06T08:40:13;19.80;85.30
4960;DHT22;2495;48.200;11.532;2022-08-06T08:45:15;19.90;84.10
4960;DHT22;2495;48.200;11.532;2022-08-06T08:50:23;19.80;83.80
4960;DHT22;2495;48.200;11.532;2022-08-06T08:55:24;19.70;84.30
4960;DHT22;2495;48.200;11.532;2022-08-06T09:00:25;19.70;83.90
4960;DHT22;2495;48.200;11.532;2022-08-06T09:05:26;19.70;83.80
4960;DHT22;2495;48.200;11.532;2022-08-06T09:10:28;19.60;83.80
4960;DHT22;2495;48.200;11.532;2022-08-06T09:15:29;19.60;84.00
4960;DHT22;2495;48.200;11.532;2022-08-06T09:20:30;19.60;84.00
4960;DHT22;2495;48.200;11.532;2022-08-06T09:30:36;19.70;83.80
4960;DHT22;2495;48.200;11.532;2022-08-06T09:35:37;19.70;83.50
4960;DHT22;2495;48.200;11.532;2022-08-06T09:40:38;19.70;83.40
4960;DHT22;2495;48.200;11.532;2022-08-06T09:45:44;19.70;83.40
4960;DHT22;2495;48.200;11.532;2022-08-06T09:50:45;19.80;83.60
4960;DHT22;2495;48.200;11.532;2022-08-06T09:55:42;19.90;83.40
4960;DHT22;2495;48.200;11.532;2022-08-06T10:00:43;20.00;83.60
4960;DHT22;2495;48.200;11.532;2022-08-06T10:05:45;20.20;83.30
4960;DHT22;2495;48.200;11.532;2022-08-06T10:10:47;20.40;84.20
4960;DHT22;2495;48.200;11.532;2022-08-06T10:15:51;20.80;84.50
4960;DHT22;2495;48.200;11.532;2022-08-06T10:21:06;20.80;83.10
4960;DHT22;2495;48.200;11.532;2022-08-06T10:26:08;20.90;83.10
4960;DHT22;2495;48.200;11.532;2022-08-06T10:31:10;21.00;82.50
4960;DHT22;2495;48.200;11.532;2022-08-06T10:36:14;21.00;81.40
4960;DHT22;2495;48.200;11.532;2022-08-06T10:41:14;20.80;82.10
4960;DHT22;2495;48.200;11.532;2022-08-06T10:46:16;20.90;82.10
4960;DHT22;2495;48.200;11.532;2022-08-06T10:51:17;21.00;82.00
4960;DHT22;2495;48.200;11.532;2022-08-06T10:56:18;21.10;81.80
4960;DHT22;2495;48.200;11.532;2022-08-06T11:01:34;21.00;81.80
4960;DHT22;2495;48.200;11.532;2022-08-06T11:17:19;21.20;82.10
4960;DHT22;2495;48.200;11.532;2022-08-06T11:22:40;21.20;81.40
4960;DHT22;2495;48.200;11.532;2022-08-06T11:27:47;21.30;81.20
4960;DHT22;2495;48.200;11.532;2022-08-06T11:32:51;21.40;80.80
4960;DHT22;2495;48.200;11.532;2022-08-06T11:37:51;21.40;80.50
4960;DHT22;2495;48.200;11.532;2022-08-06T11:42:53;21.30;80.60
4960;DHT22;2495;48.200;11.532;2022-08-06T11:48:04;21.20;80.30
4960;DHT22;2495;48.200;11.532;2022-08-06T11:53:04;21.30;80.60
4960;DHT22;2495;48.200;11.532;2022-08-06T12:03:15;21.50;79.70
4960;DHT22;2495;48.200;11.532;2022-08-06T12:08:21;21.50;79.50
4960;DHT22;2495;48.200;11.532;2022-08-06T12:13:37;21.60;78.90
4960;DHT22;2495;48.200;11.532;2022-08-06T12:18:37;21.90;78.30
4960;DHT22;2495;48.200;11.532;2022-08-06T12:23:39;22.10;77.10
4960;DHT22;2495;48.200;11.532;2022-08-06T12:28:40;22.10;76.90
4960;DHT22;2495;48.200;11.532;2022-08-06T12:33:41;22.00;76.90
4960;DHT22;2495;48.200;11.532;2022-08-06T12:38:43;22.10;77.50
4960;DHT22;2495;48.200;11.532;2022-08-06T12:43:44;22.40;78.80
4960;DHT22;2495;48.200;11.532;2022-08-06T12:48:47;22.50;77.30
4960;DHT22;2495;48.200;11.532;2022-08-06T12:53:51;22.40;77.20
4960;DHT22;2495;48.200;11.532;2022-08-06T12:58:53;22.20;77.00
4960;DHT22;2495;48.200;11.532;2022-08-06T13:03:54;22.00;76.50
4960;DHT22;2495;48.200;11.532;2022-08-06T13:08:56;21.90;76.50
4960;DHT22;2495;48.200;11.532;2022-08-06T13:13:57;21.90;76.70
4960;DHT22;2495;48.200;11.532;2022-08-06T13:19:02;22.20;78.30
4960;DHT22;2495;48.200;11.532;2022-08-06T13:24:03;22.30;75.30
4960;DHT22;2495;48.200;11.532;2022-08-06T13:29:20;22.20;74.60
4960;DHT22;2495;48.200;11.532;2022-08-06T13:34:21;22.00;74.50
4960;DHT22;2495;48.200;11.532;2022-08-06T13:39:27;22.00;74.00
4960;DHT22;2495;48.200;11.532;2022-08-06T13:44:35;22.20;74.20
4960;DHT22;2495;48.200;11.532;2022-08-06T13:49:37;22.30;72.70
4960;DHT22;2495;48.200;11.532;2022-08-06T13:54:38;22.30;72.70
4960;DHT22;2495;48.200;11.532;2022-08-06T13:59:40;22.40;72.60
4960;DHT22;2495;48.200;11.532;2022-08-06T14:04:41;22.50;72.40
4960;DHT22;2495;48.200;11.532;2022-08-06T14:09:42;22.60;71.60
4960;DHT22;2495;48.200;11.532;2022-08-06T14:14:43;22.70;71.50
4960;DHT22;2495;48.200;11.532;2022-08-06T14:19:45;22.70;70.90
4960;DHT22;2495;48.200;11.532;2022-08-06T14:24:46;22.80;70.30
4960;DHT22;2495;48.200;11.532;2022-08-06T14:29:47;22.90;70.30
4960;DHT22;2495;48.200;11.532;2022-08-06T14:34:48;23.10;70.20
4960;DHT22;2495;48.200;11.532;2022-08-06T14:39:50;23.30;69.00
4960;DHT22;2495;48.200;11.532;2022-08-06T14:44:51;23.50;70.50
4960;DHT22;2495;48.200;11.532;2022-08-06T14:49:55;23.70;69.40
4960;DHT22;2495;48.200;11.532;2022-08-06T14:54:56;23.80;68.80
4960;DHT22;2495;48.200;11.532;2022-08-06T14:59:57;23.70;68.20
4960;DHT22;2495;48.200;11.532;2022-08-06T15:04:59;23.90;69.60
4960;DHT22;2495;48.200;11.532;2022-08-06T15:10:00;24.00;68.00
4960;DHT22;2495;48.200;11.532;2022-08-06T15:15:02;24.20;69.40
4960;DHT22;2495;48.200;11.532;2022-08-06T15:20:03;24.10;67.00
4960;DHT22;2495;48.200;11.532;2022-08-06T15:25:05;23.80;66.60
4960;DHT22;2495;48.200;11.532;2022-08-06T15:30:06;23.70;66.70
4960;DHT22;2495;48.200;11.532;2022-08-06T15:35:08;23.70;66.80
4960;DHT22;2495;48.200;11.532;2022-08-06T15:40:09;23.80;66.30
4960;DHT22;2495;48.200;11.532;2022-08-06T15:45:11;23.70;66.10
4960;DHT22;2495;48.200;11.532;2022-08-06T15:50:12;23.70;66.00
4960;DHT22;2495;48.200;11.532;2022-08-06T15:55:13;23.60;66.10
4960;DHT22;2495;48.200;11.532;2022-08-06T16:00:15;23.60;66.10
4960;DHT22;2495;48.200;11.532;2022-08-06T16:05:17;23.60;66.10
4960;DHT22;2495;48.200;11.532;2022-08-06T16:10:18;23.70;66.10
4960;DHT22;2495;48.200;11.532;2022-08-06T16:15:19;23.80;67.50
4960;DHT22;2495;48.200;11.532;2022-08-06T16:20:20;23.90;66.90
4960;DHT22;2495;48.200;11.532;2022-08-06T16:25:22;23.90;66.30
4960;DHT22;2495;48.200;11.532;2022-08-06T16:30:23;23.80;65.80
4960;DHT22;2495;48.200;11.532;2022-08-06T16:35:25;23.60;65.90
4960;DHT22;2495;48.200;11.532;2022-08-06T16:40:26;23.60;65.90
4960;DHT22;2495;48.200;11.532;2022-08-06T16:45:28;23.50;65.90
4960;DHT22;2495;48.200;11.532;2022-08-06T16:50:29;23.50;66.20
4960;DHT22;2495;48.200;11.532;2022-08-06T16:55:31;23.50;67.20
4960;DHT22;2495;48.200;11.532;2022-08-06T17:00:32;23.50;66.70
4960;DHT22;2495;48.200;11.532;2022-08-06T17:05:33;23.50;66.70
4960;DHT22;2495;48.200;11.532;2022-08-06T17:10:35;23.50;66.90
4960;DHT22;2495;48.200;11.532;2022-08-06T17:15:36;23.40;66.70
4960;DHT22;2495;48.200;11.532;2022-08-06T17:20:37;23.40;67.90
4960;DHT22;2495;48.200;11.532;2022-08-06T17:25:39;23.30;67.00
4960;DHT22;2495;48.200;11.532;2022-08-06T17:30:41;23.40;67.00
4960;DHT22;2495;48.200;11.532;2022-08-06T17:35:42;23.30;66.80
4960;DHT22;2495;48.200;11.532;2022-08-06T17:40:43;23.40;66.90
4960;DHT22;2495;48.200;11.532;2022-08-06T17:45:45;23.50;67.00
4960;DHT22;2495;48.200;11.532;2022-08-06T17:50:46;23.50;66.90
4960;DHT22;2495;48.200;11.532;2022-08-06T17:55:48;23.50;67.00
4960;DHT22;2495;48.200;11.532;2022-08-06T18:00:49;23.50;67.40
4960;DHT22;2495;48.200;11.532;2022-08-06T18:05:50;23.60;67.20
4960;DHT22;2495;48.200;11.532;2022-08-06T18:10:51;23.50;67.00
4960;DHT22;2495;48.200;11.532;2022-08-06T18:15:53;23.50;67.10
4960;DHT22;2495;48.200;11.532;2022-08-06T18:20:54;23.70;69.10
4960;DHT22;2495;48.200;11.532;2022-08-06T18:25:55;23.80;68.20
4960;DHT22;2495;48.200;11.532;2022-08-06T18:31:00;23.60;68.00
4960;DHT22;2495;48.200;11.532;2022-08-06T18:36:01;23.50;68.40
4960;DHT22;2495;48.200;11.532;2022-08-06T18:41:03;23.70;70.10
4960;DHT22;2495;48.200;11.532;2022-08-06T18:46:04;23.90;70.70
4960;DHT22;2495;48.200;11.532;2022-08-06T18:51:05;23.80;69.80
4960;DHT22;2495;48.200;11.532;2022-08-06T18:56:06;23.70;69.10
4960;DHT22;2495;48.200;11.532;2022-08-06T19:01:08;23.50;69.00
4960;DHT22;2495;48.200;11.532;2022-08-06T19:06:09;23.40;69.20
4960;DHT22;2495;48.200;11.532;2022-08-06T19:11:10;23.30;69.40
4960;DHT22;2495;48.200;11.532;2022-08-06T19:16:11;23.20;69.70
4960;DHT22;2495;48.200;11.532;2022-08-06T19:21:13;23.10;69.70
4960;DHT22;2495;48.200;11.532;2022-08-06T19:26:14;23.10;69.60
4960;DHT22;2495;48.200;11.532;2022-08-06T19:31:15;23.10;70.50
4960;DHT22;2495;48.200;11.532;2022-08-06T19:36:16;23.00;69.90
4960;DHT22;2495;48.200;11.532;2022-08-06T19:41:17;23.00;70.20
4960;DHT22;2495;48.200;11.532;2022-08-06T19:46:19;23.00;70.30
4960;DHT22;2495;48.200;11.532;2022-08-06T19:51:20;23.00;70.60
4960;DHT22;2495;48.200;11.532;2022-08-06T19:56:21;23.00;70.90
4960;DHT22;2495;48.200;11.532;2022-08-06T20:01:22;22.90;71.00
4960;DHT22;2495;48.200;11.532;2022-08-06T20:06:24;22.90;71.30
4960;DHT22;2495;48.200;11.532;2022-08-06T20:11:25;22.80;71.50
4960;DHT22;2495;48.200;11.532;2022-08-06T20:16:26;22.80;71.80
4960;DHT22;2495;48.200;11.532;2022-08-06T20:21:27;22.80;71.90
4960;DHT22;2495;48.200;11.532;2022-08-06T20:26:28;22.80;72.10
4960;DHT22;2495;48.200;11.532;2022-08-06T20:31:30;22.90;73.80
4960;DHT22;2495;48.200;11.532;2022-08-06T20:36:31;23.00;72.90
4960;DHT22;2495;48.200;11.532;2022-08-06T20:41:32;22.90;72.80
4960;DHT22;2495;48.200;11.532;2022-08-06T20:46:34;22.80;72.90
4960;DHT22;2495;48.200;11.532;2022-08-06T20:51:34;22.80;72.90
4960;DHT22;2495;48.200;11.532;2022-08-06T20:56:36;22.70;72.90
4960;DHT22;2495;48.200;11.532;2022-08-06T21:01:37;22.60;72.90
4960;DHT22;2495;48.200;11.532;2022-08-06T21:06:38;22.60;73.00
4960;DHT22;2495;48.200;11.532;2022-08-06T21:11:39;22.50;73.10
4960;DHT22;2495;48.200;11.532;2022-08-06T21:16:41;22.40;73.40
4960;DHT22;2495;48.200;11.532;2022-08-06T21:21:42;22.40;73.60
4960;DHT22;2495;48.200;11.532;2022-08-06T21:26:43;22.30;73.80
4960;DHT22;2495;48.200;11.532;2022-08-06T21:31:44;22.30;74.00
4960;DHT22;2495;48.200;11.532;2022-08-06T21:36:46;22.30;74.40
4960;DHT22;2495;48.200;11.532;2022-08-06T21:41:47;22.20;74.50
4960;DHT22;2495;48.200;11.532;2022-08-06T21:46:48;22.20;75.30
4960;DHT22;2495;48.200;11.532;2022-08-06T21:51:49;22.20;74.80
4960;DHT22;2495;48.200;11.532;2022-08-06T21:56:50;22.10;74.90
4960;DHT22;2495;48.200;11.532;2022-08-06T22:01:52;22.30;76.40
4960;DHT22;2495;48.200;11.532;2022-08-06T22:06:53;22.40;75.40
4960;DHT22;2495;48.200;11.532;2022-08-06T22:11:54;22.30;75.10
4960;DHT22;2495;48.200;11.532;2022-08-06T22:16:55;22.20;75.10
4960;DHT22;2495;48.200;11.532;2022-08-06T22:21:56;22.10;75.10
4960;DHT22;2495;48.200;11.532;2022-08-06T22:26:58;22.30;76.80
4960;DHT22;2495;48.200;11.532;2022-08-06T22:31:59;22.30;75.90
4960;DHT22;2495;48.200;11.532;2022-08-06T22:37:00;22.40;77.30
4960;DHT22;2495;48.200;11.532;2022-08-06T22:42:01;22.60;77.80
4960;DHT22;2495;48.200;11.532;2022-08-06T22:47:03;22.50;76.50
4960;DHT22;2495;48.200;11.532;2022-08-06T22:52:04;22.30;76.30
4960;DHT22;2495;48.200;11.532;2022-08-06T22:57:05;22.10;76.40
4960;DHT22;2495;48.200;11.532;2022-08-06T23:02:07;22.00;76.30
4960;DHT22;2495;48.200;11.532;2022-08-06T23:07:08;21.90;76.60
4960;DHT22;2495;48.200;11.532;2022-08-06T23:12:09;21.70;76.90
4960;DHT22;2495;48.200;11.532;2022-08-06T23:17:10;21.70;77.20
4960;DHT22;2495;48.200;11.532;2022-08-06T23:22:12;21.70;77.40
4960;DHT22;2495;48.200;11.532;2022-08-06T23:27:13;21.80;78.90
4960;DHT22;2495;48.200;11.532;2022-08-06T23:32:14;21.80;78.00
4960;DHT22;2495;48.200;11.532;2022-08-06T23:37:15;21.80;79.50
4960;DHT22;2495;48.200;11.532;2022-08-06T23:42:16;22.10;79.60
4960;DHT22;2495;48.200;11.532;2022-08-06T23:47:18;22.00;78.30
4960;DHT22;2495;48.200;11.532;2022-08-06T23:52:19;21.80;78.20
4960;DHT22;2495;48.200;11.532;2022-08-06T23:57:20;21.90;79.30
